Time;durP1;ratioP1;P1;durP2;ratioP2;P2;SDS_P1;SDS_P2;PMS_P1;PMS_P2;Temp;Humidity;BMP_temperature;BMP_pressure;BME280_temperature;BME280_humidity;BME280_pressure;Samples;Min_cycle;Max_cycle;Signal;HPM_P1;HPM_P2
2023/06/13 00:01:14;;;;;;;2.15;2.05;;;17.50;97.90;;;;;;5099112;28;20184;-74
2023/06/13 00:03:40;;;;;;;1.80;1.70;;;17.50;97.70;;;;;;5076773;28;20739;-74
2023/06/13 00:06:07;;;;;;;2.05;1.95;;;17.50;97.70;;;;;;5094461;28;20236;-73
2023/06/13 00:08:33;;;;;;;1.50;1.50;;;17.50;97.70;;;;;;5096724;28;20534;-73
2023/06/13 00:10:59;;;;;;;1.50;1.50;;;17.40;97.80;;;;;;5088355;28;20572;-74
2023/06/13 00:13:25;;;;;;;1.63;1.52;;;17.40;97.90;;;;;;5098886;28;20182;-74
2023/06/13 00:15:53;;;;;;;1.42;1.42;;;17.40;98.00;;;;;;5097760;28;20193;-73
2023/06/13 00:18:19;;;;;;;2.05;1.27;;;17.40;98.10;;;;;;5078576;28;20178;-74
2023/06/13 00:20:47;;;;;;;2.05;1.48;;;17.40;98.20;;;;;;5096407;28;20182;-75
2023/06/13 00:23:13;;;;;;;1.20;1.20;;;17.40;98.10;;;;;;5093714;28;20209;-73
2023/06/13 00:25:38;;;;;;;2.05;1.58;;;17.40;98.20;;;;;;5079964;28;20619;-74
2023/06/13 00:28:04;;;;;;;1.55;1.48;;;17.50;97.90;;;;;;5097050;28;20264;-73
2023/06/13 00:30:30;;;;;;;1.60;1.60;;;17.50;98.00;;;;;;5101925;28;20663;-73
2023/06/13 00:32:57;;;;;;;1.80;1.60;;;17.50;97.90;;;;;;5099179;28;20243;-73
2023/06/13 00:35:23;;;;;;;1.40;1.40;;;17.50;98.20;;;;;;5096365;28;20200;-75
2023/06/13 00:37:54;;;;;;;1.92;1.83;;;17.40;98.10;;;;;;5097126;28;20202;-73
2023/06/13 00:40:21;;;;;;;1.83;1.67;;;17.40;98.40;;;;;;5085646;28;20631;-74
2023/06/13 00:42:47;;;;;;;1.42;1.42;;;17.30;98.10;;;;;;5094808;28;20181;-74
2023/06/13 00:45:18;;;;;;;1.50;1.50;;;17.30;98.20;;;;;;5103383;28;20879;-74
2023/06/13 00:47:45;;;;;;;1.60;1.60;;;17.30;98.00;;;;;;5094416;28;20264;-74
2023/06/13 00:50:12;;;;;;;3.42;1.73;;;17.40;98.20;;;;;;5076744;28;20269;-74
2023/06/13 00:52:39;;;;;;;1.85;1.85;;;17.40;98.20;;;;;;5093508;28;20177;-74
2023/06/13 00:55:06;;;;;;;1.85;1.75;;;17.40;98.00;;;;;;5095044;28;20185;-73
2023/06/13 00:57:33;;;;;;;1.65;1.58;;;17.30;98.00;;;;;;5092216;28;20214;-73
2023/06/13 01:00:00;;;;;;;1.50;1.50;;;17.30;97.90;;;;;;5091276;28;20182;-73
2023/06/13 01:02:27;;;;;;;1.92;1.92;;;17.30;98.10;;;;;;5097096;28;20178;-73
2023/06/13 01:04:53;;;;;;;2.65;2.45;;;17.20;98.40;;;;;;5090528;28;20174;-73
2023/06/13 01:07:20;;;;;;;2.53;2.33;;;17.20;98.10;;;;;;5094944;28;20192;-74
2023/06/13 01:09:46;;;;;;;1.95;1.95;;;17.10;98.40;;;;;;5095111;28;20186;-73
2023/06/13 01:12:23;;;;;;;1.63;1.63;;;17.10;98.10;;;;;;5099815;28;20182;-73
2023/06/13 01:15:04;;;;;;;2.08;2.08;;;17.10;97.50;;;;;;5115586;27;20182;-74
2023/06/13 01:17:35;;;;;;;3.13;1.98;;;16.90;98.50;;;;;;5094160;28;20218;-75
2023/06/13 01:20:05;;;;;;;2.17;2.05;;;16.80;98.50;;;;;;5094603;28;20178;-74
2023/06/13 01:22:43;;;;;;;1.33;1.33;;;16.80;98.50;;;;;;5098934;28;20186;-74
2023/06/13 01:25:28;;;;;;;1.70;1.40;;;16.80;98.50;;;;;;5089966;28;20185;-74
2023/06/13 01:27:58;;;;;;;2.30;1.50;;;16.80;97.90;;;;;;5102151;28;20663;-74
2023/06/13 01:30:25;;;;;;;1.67;1.67;;;16.80;98.30;;;;;;5102426;28;20190;-73
2023/06/13 01:32:52;;;;;;;2.00;1.90;;;16.70;98.40;;;;;;5099528;28;20178;-74
2023/06/13 01:35:19;;;;;;;2.08;1.90;;;16.70;98.00;;;;;;5099097;28;20182;-74
2023/06/13 01:37:45;;;;;;;1.60;1.50;;;16.70;97.90;;;;;;5094804;28;20214;-74
2023/06/13 01:40:14;;;;;;;1.55;1.50;;;16.70;97.80;;;;;;5104378;28;20566;-73
2023/06/13 01:42:39;;;;;;;1.73;1.63;;;16.70;97.70;;;;;;5084255;28;20648;-74
2023/06/13 01:45:06;;;;;;;2.65;1.77;;;16.70;98.00;;;;;;5105699;28;20186;-73
2023/06/13 01:47:43;;;;;;;1.63;1.40;;;16.60;98.00;;;;;;5098870;28;20213;-74
2023/06/13 01:50:32;;;;;;;1.50;1.50;;;16.60;97.90;;;;;;5099424;28;20215;-73
2023/06/13 01:53:01;;;;;;;1.65;1.65;;;16.60;97.70;;;;;;5101843;28;20579;-73
2023/06/13 01:55:40;;;;;;;1.42;1.42;;;16.60;98.40;;;;;;5099210;28;20603;-74
2023/06/13 01:58:12;;;;;;;1.73;1.63;;;16.60;98.20;;;;;;5103442;28;20213;-74
2023/06/13 02:00:41;;;;;;;1.42;1.42;;;16.60;98.40;;;;;;5101805;28;20226;-73
2023/06/13 02:03:07;;;;;;;1.77;1.65;;;16.50;98.50;;;;;;5102630;28;20760;-73
2023/06/13 02:05:34;;;;;;;1.48;1.38;;;16.50;98.50;;;;;;5107396;28;20181;-74
2023/06/13 02:08:02;;;;;;;1.75;1.65;;;16.50;98.50;;;;;;5100445;28;20635;-72
2023/06/13 02:10:27;;;;;;;1.60;1.50;;;16.40;98.50;;;;;;5101686;28;20263;-73
2023/06/13 02:12:53;;;;;;;1.63;1.52;;;16.40;98.50;;;;;;5094254;28;20652;-74
2023/06/13 02:15:19;;;;;;;1.98;1.98;;;16.30;98.50;;;;;;5098869;28;20239;-74
2023/06/13 02:17:45;;;;;;;1.88;1.77;;;16.30;98.50;;;;;;5102670;28;20217;-73
2023/06/13 02:20:12;;;;;;;2.10;2.00;;;16.30;98.50;;;;;;5099292;28;20182;-74
2023/06/13 02:22:38;;;;;;;3.17;1.80;;;16.30;98.50;;;;;;5096768;28;20187;-73
2023/06/13 02:25:04;;;;;;;4.15;2.17;;;16.30;98.50;;;;;;5101596;28;20676;-74
2023/06/13 02:27:30;;;;;;;2.35;2.25;;;16.30;98.50;;;;;;5102072;28;20252;-73
2023/06/13 02:29:56;;;;;;;1.75;1.65;;;16.20;98.50;;;;;;5082426;28;20773;-74
2023/06/13 02:32:23;;;;;;;1.58;1.58;;;16.20;98.50;;;;;;5085443;28;20210;-75
2023/06/13 02:34:49;;;;;;;1.67;1.48;;;16.10;98.50;;;;;;5088960;28;20174;-76
2023/06/13 02:37:15;;;;;;;1.65;1.55;;;16.10;98.50;;;;;;5083325;28;20217;-74
2023/06/13 02:39:40;;;;;;;2.65;2.03;;;16.00;98.50;;;;;;5096060;28;20167;-73
2023/06/13 02:42:07;;;;;;;1.90;1.80;;;16.00;98.50;;;;;;5095182;28;20752;-73
2023/06/13 02:44:32;;;;;;;1.67;1.58;;;15.90;98.50;;;;;;5099889;28;20177;-74
2023/06/13 02:46:58;;;;;;;1.90;1.80;;;15.90;98.50;;;;;;5093790;28;20250;-74
2023/06/13 02:49:24;;;;;;;1.83;1.77;;;15.90;98.50;;;;;;5095959;28;20220;-73
2023/06/13 02:51:49;;;;;;;1.30;1.30;;;15.90;98.50;;;;;;5095512;28;20174;-74
2023/06/13 02:54:15;;;;;;;1.60;1.50;;;15.90;98.50;;;;;;5101649;28;20208;-73
2023/06/13 02:56:41;;;;;;;1.80;1.80;;;15.90;98.50;;;;;;5084055;28;20210;-74
2023/06/13 02:59:06;;;;;;;1.45;1.45;;;15.90;98.50;;;;;;5102323;28;20174;-73
2023/06/13 03:01:32;;;;;;;3.55;1.95;;;15.80;98.50;;;;;;5097769;28;20261;-75
2023/06/13 03:03:58;;;;;;;1.42;1.42;;;15.90;98.50;;;;;;5098862;28;20185;-73
2023/06/13 03:06:24;;;;;;;1.88;1.73;;;15.80;98.50;;;;;;5090589;28;20203;-74
2023/06/13 03:08:52;;;;;;;1.85;1.80;;;15.80;98.50;;;;;;5096456;28;20175;-73
2023/06/13 03:11:18;;;;;;;2.53;1.55;;;15.90;98.50;;;;;;5090889;28;20171;-73
2023/06/13 03:13:45;;;;;;;1.50;1.50;;;15.80;98.50;;;;;;5094905;28;20191;-72
2023/06/13 03:16:11;;;;;;;1.27;1.27;;;15.80;98.50;;;;;;5093667;28;20182;-73
2023/06/13 03:18:37;;;;;;;1.65;1.60;;;15.80;98.50;;;;;;5100677;28;20182;-74
2023/06/13 03:21:03;;;;;;;2.05;1.83;;;15.80;98.50;;;;;;5073861;28;20307;-73
2023/06/13 03:23:30;;;;;;;1.92;1.77;;;15.80;98.50;;;;;;5099183;28;20591;-72
2023/06/13 03:25:55;;;;;;;1.63;1.63;;;15.90;98.50;;;;;;5071565;28;20187;-74
2023/06/13 03:28:22;;;;;;;1.75;1.75;;;15.90;98.50;;;;;;5094726;28;20564;-72
2023/06/13 03:30:48;;;;;;;2.10;2.00;;;15.90;98.50;;;;;;5093708;28;20783;-74
2023/06/13 03:33:14;;;;;;;1.70;1.65;;;15.90;98.50;;;;;;5100454;28;20250;-74
2023/06/13 03:35:40;;;;;;;2.03;1.92;;;15.90;98.50;;;;;;5094171;28;20185;-74
2023/06/13 03:38:06;;;;;;;1.77;1.75;;;15.90;98.50;;;;;;5098641;28;20221;-73
2023/06/13 03:40:32;;;;;;;2.30;2.20;;;15.90;98.50;;;;;;5079010;28;20190;-73
2023/06/13 03:42:58;;;;;;;2.08;1.92;;;16.00;98.50;;;;;;5076616;28;20651;-73
2023/06/13 03:45:26;;;;;;;3.70;2.50;;;15.90;98.50;;;;;;5087055;28;20220;-73
2023/06/13 03:47:52;;;;;;;2.53;2.42;;;16.00;98.50;;;;;;5093957;28;20173;-73
2023/06/13 03:50:18;;;;;;;3.13;2.50;;;15.90;98.50;;;;;;5091052;28;20586;-73
2023/06/13 03:52:44;;;;;;;3.33;2.10;;;15.90;98.50;;;;;;5090357;28;20185;-74
2023/06/13 03:55:11;;;;;;;2.83;2.63;;;15.90;98.50;;;;;;5072241;28;20181;-75
2023/06/13 03:57:37;;;;;;;4.43;2.55;;;16.00;98.50;;;;;;5078035;28;20244;-74
2023/06/13 04:00:05;;;;;;;2.22;2.13;;;16.00;98.50;;;;;;5092420;28;20197;-72
2023/06/13 04:02:30;;;;;;;5.03;2.85;;;16.00;98.50;;;;;;5094657;28;20181;-73
2023/06/13 04:04:56;;;;;;;3.15;2.95;;;16.00;98.50;;;;;;5093518;28;20178;-74
2023/06/13 04:07:23;;;;;;;3.20;2.97;;;15.90;98.50;;;;;;5079703;28;20749;-74
2023/06/13 04:09:49;;;;;;;2.95;2.85;;;16.00;98.50;;;;;;5095563;28;20176;-73
2023/06/13 04:12:15;;;;;;;3.33;3.00;;;16.00;98.50;;;;;;5077794;28;20732;-74
2023/06/13 04:14:40;;;;;;;3.40;3.08;;;16.10;98.50;;;;;;5089593;28;20643;-74
2023/06/13 04:17:09;;;;;;;6.85;3.53;;;16.20;98.50;;;;;;5089615;28;20202;-73
2023/06/13 04:19:35;;;;;;;4.30;2.95;;;16.20;98.50;;;;;;5075306;28;20238;-74
2023/06/13 04:22:01;;;;;;;2.97;2.75;;;16.20;98.50;;;;;;5095227;28;20186;-73
2023/06/13 04:24:27;;;;;;;4.00;3.63;;;16.20;98.50;;;;;;5076817;28;20185;-73
2023/06/13 04:26:53;;;;;;;3.13;2.88;;;16.20;98.50;;;;;;5094788;28;20182;-74
2023/06/13 04:29:20;;;;;;;3.72;3.53;;;16.30;98.50;;;;;;5093485;28;20179;-74
2023/06/13 04:31:46;;;;;;;4.63;3.53;;;16.30;98.50;;;;;;5074040;28;20629;-74
2023/06/13 04:34:13;;;;;;;3.75;2.97;;;16.40;98.50;;;;;;5091062;28;20186;-73
2023/06/13 04:36:41;;;;;;;4.32;3.03;;;16.40;98.50;;;;;;5090138;28;20198;-73
2023/06/13 04:39:07;;;;;;;3.05;2.85;;;16.40;98.50;;;;;;5093232;28;20734;-73
2023/06/13 04:41:37;;;;;;;5.63;3.97;;;16.40;98.50;;;;;;5095702;28;20680;-73
2023/06/13 04:44:09;;;;;;;4.20;3.88;;;16.50;98.50;;;;;;5093470;28;20285;-74
2023/06/13 04:46:36;;;;;;;5.22;3.53;;;16.50;98.50;;;;;;5080509;28;20170;-73
2023/06/13 04:49:02;;;;;;;5.53;3.67;;;16.50;98.50;;;;;;5093339;28;20263;-73
2023/06/13 04:51:28;;;;;;;4.45;3.42;;;16.60;98.50;;;;;;5098656;28;20178;-73
2023/06/13 04:53:57;;;;;;;5.88;3.83;;;16.60;98.50;;;;;;5089628;28;20181;-74
2023/06/13 04:56:24;;;;;;;3.80;3.40;;;16.60;98.50;;;;;;5100421;28;20227;-73
2023/06/13 04:58:51;;;;;;;4.95;4.38;;;16.70;98.50;;;;;;5075542;28;20185;-74
2023/06/13 05:01:18;;;;;;;4.10;3.75;;;16.70;98.50;;;;;;5089219;28;20180;-74
2023/06/13 05:03:45;;;;;;;3.78;3.55;;;16.90;98.50;;;;;;5098333;28;20665;-75
2023/06/13 05:06:12;;;;;;;4.55;4.15;;;16.90;98.50;;;;;;5092907;28;20177;-74
2023/06/13 05:08:38;;;;;;;4.07;3.83;;;17.00;98.50;;;;;;5094885;28;20661;-74
2023/06/13 05:11:04;;;;;;;4.50;4.18;;;17.10;98.50;;;;;;5092511;28;20190;-74
2023/06/13 05:13:30;;;;;;;5.25;3.88;;;17.10;98.20;;;;;;5087991;28;20170;-73
2023/06/13 05:15:56;;;;;;;4.25;3.83;;;17.10;98.10;;;;;;5091913;28;20189;-74
2023/06/13 05:18:24;;;;;;;3.90;3.60;;;17.20;98.20;;;;;;5085125;28;20202;-73
2023/06/13 05:20:50;;;;;;;3.60;3.30;;;17.30;98.30;;;;;;5069629;28;20174;-75
2023/06/13 05:23:16;;;;;;;4.95;3.70;;;17.30;98.20;;;;;;5089422;28;20174;-77
2023/06/13 05:25:42;;;;;;;5.65;3.55;;;17.40;97.80;;;;;;5089133;28;20201;-73
2023/06/13 05:28:08;;;;;;;4.10;3.75;;;17.50;97.90;;;;;;5090631;28;20186;-72
2023/06/13 05:30:33;;;;;;;4.05;3.75;;;17.60;98.00;;;;;;5090110;28;20593;-74
2023/06/13 05:32:59;;;;;;;6.45;3.75;;;17.70;97.70;;;;;;5090770;28;20198;-74
2023/06/13 05:35:25;;;;;;;3.60;3.40;;;17.80;97.70;;;;;;5069889;28;20631;-74
2023/06/13 05:37:51;;;;;;;4.47;4.03;;;17.90;97.50;;;;;;5075758;28;20241;-74
2023/06/13 05:40:17;;;;;;;5.05;3.47;;;18.00;97.30;;;;;;5092768;28;20225;-74
2023/06/13 05:42:42;;;;;;;3.22;3.03;;;18.00;97.00;;;;;;5075304;28;20562;-72
